Time;durP1;ratioP1;P1;durP2;ratioP2;P2;SDS_P1;SDS_P2;PMS_P1;PMS_P2;Temp;Humidity;BMP_temperature;BMP_pressure;BME280_temperature;BME280_humidity;BME280_pressure;Samples;Min_cycle;Max_cycle;Signal;HPM_P1;HPM_P2
2022/09/06 00:01:38;;;;;;;2.00;1.50;;;16.20;59.00;;;;;;5052166;28;20124;-56
2022/09/06 00:04:03;;;;;;;1.45;1.38;;;16.10;59.10;;;;;;5059111;23;20494;-56
2022/09/06 00:06:29;;;;;;;2.60;1.98;;;16.10;59.00;;;;;;5051848;28;20090;-56
2022/09/06 00:08:55;;;;;;;2.22;1.80;;;16.00;59.20;;;;;;5047963;28;20463;-56
2022/09/06 00:11:20;;;;;;;2.10;1.73;;;16.00;59.20;;;;;;5043400;28;20478;-55
2022/09/06 00:13:47;;;;;;;2.20;2.00;;;16.00;59.30;;;;;;5052214;28;20029;-57
2022/09/06 00:16:19;;;;;;;1.80;1.63;;;15.90;59.50;;;;;;5056488;28;20389;-55
2022/09/06 00:18:45;;;;;;;2.08;1.92;;;15.80;59.60;;;;;;5057776;28;20479;-56
2022/09/06 00:21:20;;;;;;;2.58;1.88;;;15.80;59.50;;;;;;5065728;28;20107;-56
2022/09/06 00:23:46;;;;;;;1.60;1.50;;;15.80;59.60;;;;;;5043351;28;20086;-55
2022/09/06 00:26:12;;;;;;;2.90;2.00;;;15.70;59.50;;;;;;5062137;28;20472;-56
2022/09/06 00:28:39;;;;;;;1.70;1.60;;;15.70;59.70;;;;;;5053754;28;20112;-56
2022/09/06 00:31:22;;;;;;;1.70;1.60;;;15.70;59.80;;;;;;5052340;28;20025;-56
2022/09/06 00:33:49;;;;;;;2.00;1.80;;;15.60;59.80;;;;;;5054429;28;20037;-55
2022/09/06 00:36:15;;;;;;;1.33;1.23;;;15.60;60.00;;;;;;5056764;28;20025;-55
2022/09/06 00:38:42;;;;;;;1.98;1.70;;;15.60;60.00;;;;;;5051841;28;20064;-57
2022/09/06 00:41:09;;;;;;;1.50;1.40;;;15.60;60.00;;;;;;5059350;28;20051;-57
2022/09/06 00:43:35;;;;;;;2.13;1.75;;;15.60;60.10;;;;;;5049091;28;20402;-55
2022/09/06 00:46:02;;;;;;;2.00;1.80;;;15.50;60.00;;;;;;5052408;28;20509;-56
2022/09/06 00:48:28;;;;;;;1.95;1.80;;;15.50;60.30;;;;;;5064878;28;20029;-56
2022/09/06 00:51:02;;;;;;;1.60;1.50;;;15.50;60.50;;;;;;5053709;28;20246;-56
2022/09/06 00:53:30;;;;;;;1.80;1.65;;;15.50;60.50;;;;;;5051164;28;20479;-56
2022/09/06 00:55:56;;;;;;;3.42;2.17;;;15.50;60.40;;;;;;5052082;28;20118;-56
2022/09/06 00:58:23;;;;;;;3.22;2.20;;;15.50;60.50;;;;;;5051312;28;20086;-56
2022/09/06 01:00:49;;;;;;;1.80;1.70;;;15.50;60.50;;;;;;5057384;28;20029;-55
2022/09/06 01:03:15;;;;;;;3.03;1.83;;;15.40;60.60;;;;;;5052002;28;20080;-56
2022/09/06 01:05:45;;;;;;;2.05;1.80;;;15.50;60.70;;;;;;5051220;28;20134;-57
2022/09/06 01:08:19;;;;;;;2.05;1.77;;;15.40;60.80;;;;;;5057511;28;20037;-56
2022/09/06 01:11:02;;;;;;;1.75;1.65;;;15.40;61.00;;;;;;5051425;28;20521;-56
2022/09/06 01:13:48;;;;;;;2.05;1.58;;;15.40;61.30;;;;;;5046805;28;20028;-56
2022/09/06 01:16:29;;;;;;;1.65;1.55;;;15.30;61.40;;;;;;5010922;28;20063;-56
2022/09/06 01:19:19;;;;;;;1.80;1.70;;;15.30;61.40;;;;;;5046623;28;20111;-56
2022/09/06 01:21:54;;;;;;;1.83;1.63;;;15.30;61.40;;;;;;5056978;28;20029;-56
2022/09/06 01:24:53;;;;;;;1.98;1.63;;;15.30;61.40;;;;;;5057075;28;20028;-57
2022/09/06 01:27:19;;;;;;;1.65;1.52;;;15.30;61.40;;;;;;5040332;28;20600;-56
2022/09/06 01:29:54;;;;;;;1.95;1.45;;;15.20;61.50;;;;;;5051151;28;20029;-56
2022/09/06 01:32:38;;;;;;;1.58;1.30;;;15.30;61.70;;;;;;5051654;28;20100;-56
2022/09/06 01:35:22;;;;;;;1.67;1.55;;;15.30;61.70;;;;;;5050195;28;20029;-56
2022/09/06 01:37:48;;;;;;;2.10;1.45;;;15.30;61.70;;;;;;5051614;28;20128;-56
2022/09/06 01:40:14;;;;;;;1.50;1.20;;;15.20;61.80;;;;;;5050686;28;20120;-56
2022/09/06 01:42:41;;;;;;;1.60;1.50;;;15.20;61.80;;;;;;5050634;28;20040;-57
2022/09/06 01:45:14;;;;;;;2.35;1.55;;;15.30;61.90;;;;;;5051827;28;20111;-56
2022/09/06 01:48:00;;;;;;;1.60;1.50;;;15.20;61.80;;;;;;5053830;28;20107;-56
2022/09/06 01:50:50;;;;;;;2.22;1.80;;;15.30;62.00;;;;;;5056877;28;20120;-56
2022/09/06 01:53:21;;;;;;;1.80;1.70;;;15.30;62.20;;;;;;5040858;28;20033;-56
2022/09/06 01:55:50;;;;;;;2.08;1.70;;;15.20;62.10;;;;;;5051366;28;20025;-56
2022/09/06 01:58:33;;;;;;;2.00;1.73;;;15.20;62.20;;;;;;5051070;28;20037;-56
2022/09/06 02:01:10;;;;;;;2.42;1.67;;;15.20;62.20;;;;;;5050511;28;20033;-57
2022/09/06 02:03:51;;;;;;;1.95;1.73;;;15.20;62.20;;;;;;5050048;28;20450;-57
2022/09/06 02:06:22;;;;;;;1.63;1.52;;;15.10;62.20;;;;;;5051757;28;20029;-56
2022/09/06 02:08:53;;;;;;;1.73;1.50;;;15.10;62.40;;;;;;5051231;28;20132;-56
2022/09/06 02:11:23;;;;;;;1.33;1.23;;;15.10;62.40;;;;;;5051754;28;20036;-55
2022/09/06 02:13:56;;;;;;;2.40;1.80;;;15.10;62.60;;;;;;5051684;28;20064;-56
2022/09/06 02:16:25;;;;;;;2.38;1.75;;;15.10;62.60;;;;;;5054730;28;20108;-56
2022/09/06 02:19:10;;;;;;;2.33;1.90;;;15.10;62.70;;;;;;5054749;28;20430;-56
2022/09/06 02:21:41;;;;;;;1.73;1.63;;;15.10;62.80;;;;;;5052374;28;20025;-52
2022/09/06 02:24:12;;;;;;;2.60;1.92;;;15.00;62.90;;;;;;5055143;28;20062;-56
2022/09/06 02:26:42;;;;;;;2.15;1.98;;;15.00;63.10;;;;;;5062770;28;20048;-56
2022/09/06 02:29:08;;;;;;;2.00;1.80;;;15.00;63.10;;;;;;5061432;28;20032;-56
2022/09/06 02:31:51;;;;;;;2.03;1.90;;;14.90;63.10;;;;;;5054535;28;20021;-56
2022/09/06 02:34:18;;;;;;;2.03;1.73;;;14.90;63.10;;;;;;5067061;28;20044;-56
2022/09/06 02:36:44;;;;;;;2.05;1.95;;;14.90;63.20;;;;;;5054582;28;20171;-56
2022/09/06 02:39:11;;;;;;;1.80;1.70;;;14.90;63.30;;;;;;5055177;28;20040;-56
2022/09/06 02:41:38;;;;;;;2.50;1.80;;;14.90;63.30;;;;;;5053885;28;20498;-56
2022/09/06 02:44:04;;;;;;;2.72;1.92;;;14.80;63.30;;;;;;5052907;28;20029;-56
2022/09/06 02:46:29;;;;;;;1.65;1.50;;;14.80;63.20;;;;;;5054372;28;20029;-56
2022/09/06 02:48:56;;;;;;;2.10;1.90;;;14.80;63.60;;;;;;5054247;28;20035;-56
2022/09/06 02:51:22;;;;;;;1.92;1.73;;;14.80;63.60;;;;;;5050299;28;20028;-56
2022/09/06 02:53:47;;;;;;;2.13;1.92;;;14.80;63.60;;;;;;5053322;28;20424;-56
2022/09/06 02:56:13;;;;;;;1.60;1.50;;;14.80;63.60;;;;;;5051650;28;20033;-56
2022/09/06 02:58:39;;;;;;;2.20;1.92;;;14.70;63.80;;;;;;5054658;28;20430;-55
2022/09/06 03:01:05;;;;;;;2.53;2.10;;;14.70;63.70;;;;;;5052752;28;20051;-56
2022/09/06 03:03:31;;;;;;;2.03;1.90;;;14.70;63.80;;;;;;5048125;28;20057;-56
2022/09/06 03:05:57;;;;;;;1.70;1.58;;;14.70;63.80;;;;;;5054118;28;20393;-57
2022/09/06 03:08:32;;;;;;;1.98;1.80;;;14.60;64.60;;;;;;5053422;28;20033;-56
2022/09/06 03:10:58;;;;;;;2.35;2.15;;;14.60;64.00;;;;;;5053566;28;20033;-54
2022/09/06 03:13:25;;;;;;;2.83;2.10;;;14.60;63.90;;;;;;5053980;28;20090;-56
2022/09/06 03:15:56;;;;;;;2.08;1.45;;;14.60;64.20;;;;;;5051442;28;20037;-55
2022/09/06 03:18:25;;;;;;;2.90;1.95;;;14.60;64.40;;;;;;5051767;28;20363;-56
2022/09/06 03:20:53;;;;;;;2.10;1.90;;;14.50;64.20;;;;;;5052194;28;20036;-57
2022/09/06 03:23:20;;;;;;;2.30;1.98;;;14.50;64.20;;;;;;5058648;28;20111;-57
2022/09/06 03:25:46;;;;;;;2.08;1.83;;;14.40;64.30;;;;;;5058066;28;20028;-56
2022/09/06 03:28:11;;;;;;;2.03;1.88;;;14.40;64.30;;;;;;5051263;28;20036;-53
2022/09/06 03:30:38;;;;;;;1.92;1.73;;;14.40;64.40;;;;;;5053684;28;20021;-55
2022/09/06 03:33:04;;;;;;;3.58;2.28;;;14.40;64.50;;;;;;5053898;28;20029;-56
2022/09/06 03:35:30;;;;;;;2.47;2.28;;;14.40;64.50;;;;;;5053707;28;20471;-56
2022/09/06 03:37:56;;;;;;;3.20;2.50;;;14.40;64.50;;;;;;5052898;28;20106;-54
2022/09/06 03:40:22;;;;;;;2.75;2.30;;;14.30;64.50;;;;;;5053358;28;20476;-56
2022/09/06 03:42:48;;;;;;;2.70;2.00;;;14.30;64.40;;;;;;5047449;28;20123;-56
2022/09/06 03:45:13;;;;;;;2.25;2.05;;;14.30;64.40;;;;;;5046553;28;20064;-57
2022/09/06 03:47:39;;;;;;;1.95;1.80;;;14.30;64.40;;;;;;5052870;28;20120;-56
2022/09/06 03:50:06;;;;;;;1.83;1.73;;;14.30;64.60;;;;;;5053170;28;20033;-57
2022/09/06 03:52:32;;;;;;;2.13;1.80;;;14.30;64.60;;;;;;5053140;28;20036;-56
2022/09/06 03:54:57;;;;;;;2.22;2.03;;;14.30;64.60;;;;;;5053605;28;20036;-56
2022/09/06 03:57:23;;;;;;;1.90;1.77;;;14.30;64.60;;;;;;5052084;28;20453;-56
2022/09/06 03:59:49;;;;;;;1.98;1.83;;;14.30;64.60;;;;;;5050334;28;20040;-56
2022/09/06 04:02:14;;;;;;;1.95;1.75;;;14.30;64.50;;;;;;5052714;28;20490;-55
2022/09/06 04:04:40;;;;;;;2.00;1.80;;;14.30;64.50;;;;;;5053555;28;20123;-56
2022/09/06 04:07:06;;;;;;;2.65;1.88;;;14.30;64.70;;;;;;5052740;28;20044;-56
2022/09/06 04:09:31;;;;;;;2.28;1.80;;;14.30;64.60;;;;;;5052245;28;20533;-56
2022/09/06 04:11:57;;;;;;;1.60;1.50;;;14.40;64.70;;;;;;5047419;28;20095;-56
2022/09/06 04:14:23;;;;;;;1.90;1.50;;;14.40;64.50;;;;;;5053025;28;20071;-57
2022/09/06 04:16:49;;;;;;;1.88;1.77;;;14.40;64.60;;;;;;5049597;28;20029;-56
2022/09/06 04:19:14;;;;;;;1.70;1.60;;;14.40;64.60;;;;;;5051742;28;20040;-55
2022/09/06 04:21:40;;;;;;;2.33;1.88;;;14.40;64.60;;;;;;5039831;28;20044;-56
2022/09/06 04:24:06;;;;;;;1.83;1.70;;;14.40;64.60;;;;;;5053697;28;20447;-56
2022/09/06 04:26:32;;;;;;;1.60;1.40;;;14.40;64.60;;;;;;5062334;28;20037;-56
2022/09/06 04:28:57;;;;;;;1.60;1.50;;;14.40;64.60;;;;;;5046556;28;20048;-56
2022/09/06 04:31:23;;;;;;;1.95;1.80;;;14.40;64.60;;;;;;5053143;28;20029;-56
2022/09/06 04:33:49;;;;;;;1.92;1.83;;;14.40;64.60;;;;;;5055386;28;20463;-56
2022/09/06 04:36:15;;;;;;;2.17;1.95;;;14.50;64.60;;;;;;5052404;28;20111;-56
2022/09/06 04:38:42;;;;;;;1.88;1.77;;;14.50;64.70;;;;;;5052822;28;20040;-57
2022/09/06 04:41:11;;;;;;;1.98;1.88;;;14.50;64.60;;;;;;5051907;28;20033;-54
2022/09/06 04:43:36;;;;;;;2.70;2.20;;;14.50;64.70;;;;;;5051885;28;20098;-56
2022/09/06 04:46:10;;;;;;;2.63;2.15;;;14.50;64.50;;;;;;5052498;28;20032;-56
2022/09/06 04:48:35;;;;;;;1.98;1.80;;;14.60;64.60;;;;;;5052847;28;20090;-55
2022/09/06 04:51:01;;;;;;;1.58;1.48;;;14.60;64.60;;;;;;5039319;28;20425;-55
2022/09/06 04:53:27;;;;;;;2.15;1.95;;;14.70;64.60;;;;;;5052739;28;20427;-55
2022/09/06 04:55:55;;;;;;;1.60;1.50;;;14.80;64.40;;;;;;5052541;28;20047;-56
2022/09/06 04:58:20;;;;;;;1.60;1.50;;;14.80;64.80;;;;;;5050880;28;20037;-56
2022/09/06 05:00:46;;;;;;;2.35;1.83;;;14.80;64.00;;;;;;5052836;28;20028;-57
2022/09/06 05:03:12;;;;;;;1.80;1.70;;;14.90;64.10;;;;;;5053007;28;20048;-58
2022/09/06 05:05:37;;;;;;;1.60;1.50;;;14.90;64.10;;;;;;5052831;28;20037;-57
2022/09/06 05:08:03;;;;;;;2.35;1.83;;;15.00;64.20;;;;;;5052484;28;20036;-56
2022/09/06 05:10:29;;;;;;;2.15;1.90;;;15.20;64.00;;;;;;5051697;28;20029;-54
2022/09/06 05:12:55;;;;;;;2.63;1.90;;;15.30;63.50;;;;;;5051214;28;20036;-55
2022/09/06 05:15:22;;;;;;;1.80;1.70;;;15.50;63.30;;;;;;5051614;28;20047;-53
2022/09/06 05:17:48;;;;;;;4.30;2.05;;;15.50;63.00;;;;;;5033958;28;20112;-55
2022/09/06 05:20:14;;;;;;;3.35;2.10;;;15.50;62.80;;;;;;5052699;28;20103;-55
2022/09/06 05:22:40;;;;;;;2.00;1.80;;;15.50;63.00;;;;;;5052250;28;20108;-55
2022/09/06 05:25:07;;;;;;;1.85;1.75;;;15.50;63.20;;;;;;5052768;28;20033;-52
2022/09/06 05:27:33;;;;;;;1.60;1.42;;;15.50;63.00;;;;;;5058619;28;20473;-55
2022/09/06 05:29:58;;;;;;;2.15;1.80;;;15.50;63.10;;;;;;5052626;28;20033;-56
2022/09/06 05:32:24;;;;;;;1.98;1.77;;;15.50;63.20;;;;;;5043043;28;20032;-54
2022/09/06 05:34:50;;;;;;;2.30;1.88;;;15.60;63.30;;;;;;5049218;28;20025;-55
2022/09/06 05:37:15;;;;;;;1.55;1.40;;;15.70;63.00;;;;;;5045772;28;20112;-55
2022/09/06 05:39:41;;;;;;;1.88;1.73;;;15.80;63.00;;;;;;5038075;28;20403;-55
2022/09/06 05:42:07;;;;;;;1.55;1.45;;;16.00;63.20;;;;;;5042297;28;20021;-53
2022/09/06 05:44:33;;;;;;;1.60;1.50;;;16.30;62.70;;;;;;5041446;28;20037;-53
2022/09/06 05:47:00;;;;;;;2.72;1.63;;;16.70;61.90;;;;;;5040450;28;20029;-53
2022/09/06 05:49:27;;;;;;;1.65;1.48;;;17.00;61.00;;;;;;5043062;28;20044;-54
2022/09/06 05:51:53;;;;;;;1.83;1.52;;;17.10;60.30;;;;;;5045193;28;20037;-52
2022/09/06 05:54:18;;;;;;;1.73;1.60;;;17.10;60.10;;;;;;5045325;28;20113;-53
2022/09/06 05:56:44;;;;;;;2.13;1.92;;;17.10;59.80;;;;;;5046690;28;20138;-53
2022/09/06 05:59:10;;;;;;;4.15;1.88;;;17.00;60.00;;;;;;5048488;28;20477;-53
2022/09/06 06:01:35;;;;;;;1.63;1.52;;;16.90;60.00;;;;;;5038753;28;20099;-53
2022/09/06 06:04:03;;;;;;;1.52;1.27;;;16.80;60.20;;;;;;5029019;28;20136;-51
2022/09/06 06:06:31;;;;;;;1.77;1.67;;;16.70;60.50;;;;;;5025229;28;20036;-54
2022/09/06 06:08:57;;;;;;;1.83;1.67;;;16.60;60.60;;;;;;5039893;28;20054;-55
2022/09/06 06:11:25;;;;;;;1.80;1.70;;;16.50;60.70;;;;;;5037344;28;20383;-55
2022/09/06 06:13:52;;;;;;;2.70;1.88;;;16.40;60.90;;;;;;5037624;28;20037;-53
2022/09/06 06:16:20;;;;;;;1.70;1.60;;;16.40;60.80;;;;;;5033386;28;20033;-52
2022/09/06 06:18:46;;;;;;;2.30;1.60;;;16.40;60.90;;;;;;5040389;28;20048;-55
2022/09/06 06:21:16;;;;;;;1.40;1.30;;;16.30;60.90;;;;;;5038475;28;20159;-53
2022/09/06 06:23:43;;;;;;;1.92;1.70;;;16.30;60.90;;;;;;5037587;28;20040;-57
2022/09/06 06:26:10;;;;;;;1.60;1.50;;;16.30;61.10;;;;;;5041850;28;20065;-52
2022/09/06 06:28:36;;;;;;;1.38;1.27;;;16.30;61.00;;;;;;5036906;28;20115;-52
2022/09/06 06:31:04;;;;;;;1.75;1.63;;;16.30;61.00;;;;;;5047936;28;20075;-54
2022/09/06 06:33:30;;;;;;;1.65;1.55;;;16.30;61.00;;;;;;5048044;28;20048;-53
2022/09/06 06:35:59;;;;;;;1.80;1.70;;;16.40;61.10;;;;;;5045211;28;20029;-54
2022/09/06 06:38:36;;;;;;;2.17;1.75;;;16.30;61.10;;;;;;5035889;28;20033;-54
2022/09/06 06:41:03;;;;;;;1.92;1.63;;;16.40;61.00;;;;;;5033539;28;20025;-54
2022/09/06 06:43:35;;;;;;;1.80;1.55;;;16.40;61.00;;;;;;5031415;28;20037;-53
2022/09/06 06:46:05;;;;;;;1.83;1.73;;;16.40;60.80;;;;;;5031507;28;20435;-53
2022/09/06 06:48:31;;;;;;;1.50;1.27;;;16.40;60.90;;;;;;5026589;28;20048;-54
2022/09/06 06:50:57;;;;;;;1.60;1.50;;;16.40;60.90;;;;;;5028098;28;20048;-54
2022/09/06 06:53:23;;;;;;;1.50;1.40;;;16.40;61.00;;;;;;5027594;28;20044;-52
2022/09/06 06:55:49;;;;;;;1.50;1.40;;;16.50;61.00;;;;;;5030885;28;20164;-58
2022/09/06 06:58:16;;;;;;;0.95;0.88;;;16.60;60.60;;;;;;5026803;28;20051;-55
2022/09/06 07:00:42;;;;;;;1.80;1.10;;;16.60;60.20;;;;;;5028404;28;20514;-56
2022/09/06 07:03:09;;;;;;;1.08;1.08;;;16.60;60.00;;;;;;5031181;28;20073;-55
2022/09/06 07:05:35;;;;;;;1.10;1.00;;;16.60;59.70;;;;;;5029356;28;20029;-54
2022/09/06 07:08:01;;;;;;;1.35;1.10;;;16.60;59.40;;;;;;5022862;28;20548;-56
2022/09/06 07:10:27;;;;;;;1.40;1.30;;;16.60;59.60;;;;;;5023650;28;20135;-55
2022/09/06 07:12:53;;;;;;;0.80;0.80;;;16.70;59.60;;;;;;5017985;28;20037;-56
2022/09/06 07:15:18;;;;;;;1.00;0.77;;;16.70;59.40;;;;;;5025316;28;20098;-56
2022/09/06 07:17:44;;;;;;;1.00;1.00;;;16.70;59.10;;;;;;5025302;28;20045;-55
2022/09/06 07:20:10;;;;;;;0.88;0.88;;;16.70;58.90;;;;;;5019135;28;20037;-56
2022/09/06 07:22:37;;;;;;;0.70;0.70;;;16.80;58.70;;;;;;5021481;28;20068;-54
2022/09/06 07:25:08;;;;;;;1.10;0.95;;;16.80;58.60;;;;;;5020480;28;20040;-55
2022/09/06 07:27:34;;;;;;;1.20;0.82;;;16.80;58.50;;;;;;5019876;28;20036;-54
2022/09/06 07:29:59;;;;;;;0.88;0.88;;;16.80;58.20;;;;;;5027746;28;20044;-52
2022/09/06 07:32:25;;;;;;;0.70;0.68;;;16.90;58.30;;;;;;5023795;28;20036;-56
2022/09/06 07:34:50;;;;;;;2.10;0.80;;;16.90;57.90;;;;;;5028964;28;20387;-56
2022/09/06 07:37:16;;;;;;;0.80;0.80;;;17.00;57.60;;;;;;5030113;28;20033;-55
2022/09/06 07:39:42;;;;;;;1.45;1.30;;;17.00;57.60;;;;;;5029290;28;20540;-56
2022/09/06 07:42:08;;;;;;;0.60;0.60;;;17.10;57.50;;;;;;5032409;28;20470;-55
2022/09/06 07:44:34;;;;;;;0.55;0.55;;;17.10;57.30;;;;;;5036913;28;20037;-55
2022/09/06 07:47:05;;;;;;;0.60;0.60;;;17.10;57.30;;;;;;5038222;28;20055;-56
2022/09/06 07:49:31;;;;;;;0.98;0.80;;;17.20;57.20;;;;;;5032514;28;20036;-56
2022/09/06 07:51:57;;;;;;;1.00;0.80;;;17.20;57.10;;;;;;5031463;28;20095;-55
2022/09/06 07:54:23;;;;;;;0.75;0.75;;;17.20;56.80;;;;;;5028382;28;20167;-54
2022/09/06 07:56:48;;;;;;;0.85;0.85;;;17.20;56.50;;;;;;5031566;28;20060;-56
2022/09/06 07:59:14;;;;;;;0.73;0.73;;;17.20;56.40;;;;;;5023719;28;20130;-53
2022/09/06 08:01:40;;;;;;;0.82;0.70;;;17.10;56.00;;;;;;5022207;28;20034;-55
2022/09/06 08:04:13;;;;;;;0.60;0.60;;;17.10;55.80;;;;;;5022505;28;20053;-56
2022/09/06 08:06:42;;;;;;;0.90;0.90;;;17.00;55.80;;;;;;5027347;28;20037;-56
2022/09/06 08:09:09;;;;;;;0.80;0.80;;;17.00;56.00;;;;;;5019981;28;20044;-55
2022/09/06 08:11:36;;;;;;;1.13;0.88;;;17.00;56.20;;;;;;5023147;28;20925;-56
2022/09/06 08:14:05;;;;;;;0.90;0.90;;;16.90;56.30;;;;;;5029588;28;20032;-54
2022/09/06 08:16:32;;;;;;;0.77;0.77;;;17.00;56.30;;;;;;5022732;28;20107;-52
2022/09/06 08:19:00;;;;;;;0.80;0.80;;;16.90;56.10;;;;;;5023089;28;20051;-54
2022/09/06 08:21:28;;;;;;;0.82;0.82;;;16.90;56.00;;;;;;5022077;28;20106;-56
2022/09/06 08:24:02;;;;;;;1.13;0.82;;;16.90;55.80;;;;;;5019313;28;20033;-51
2022/09/06 08:26:28;;;;;;;0.90;0.90;;;16.90;55.90;;;;;;5028996;28;20037;-54
2022/09/06 08:28:59;;;;;;;1.67;0.82;;;17.00;56.00;;;;;;5027741;28;20068;-55
2022/09/06 08:31:29;;;;;;;0.75;0.75;;;17.10;55.70;;;;;;5021310;28;20087;-55
2022/09/06 08:33:57;;;;;;;1.02;0.93;;;17.10;55.20;;;;;;5028488;28;20041;-55
2022/09/06 08:36:26;;;;;;;1.00;0.90;;;17.20;55.10;;;;;;5020878;28;20160;-56
2022/09/06 08:38:52;;;;;;;0.80;0.80;;;17.20;55.00;;;;;;5021088;28;20076;-54
2022/09/06 08:41:25;;;;;;;0.55;0.55;;;17.20;54.90;;;;;;5023924;28;20069;-54
2022/09/06 08:44:03;;;;;;;0.65;0.60;;;17.30;54.90;;;;;;5075994;27;20524;-54
2022/09/06 08:46:37;;;;;;;0.60;0.60;;;17.30;54.60;;;;;;5068794;28;20778;-55
2022/09/06 08:49:07;;;;;;;0.70;0.70;;;17.40;54.70;;;;;;5061159;28;20032;-55
2022/09/06 08:51:47;;;;;;;0.60;0.60;;;17.40;54.30;;;;;;5057619;28;20042;-54
2022/09/06 08:54:32;;;;;;;0.90;0.90;;;17.50;54.20;;;;;;5062777;28;20369;-55
2022/09/06 08:57:44;;;;;;;1.05;0.98;;;17.50;54.10;;;;;;5056993;28;20037;-56
2022/09/06 09:00:12;;;;;;;1.02;0.75;;;17.50;54.00;;;;;;5062317;28;20063;-54
2022/09/06 09:02:42;;;;;;;0.80;0.80;;;17.50;54.30;;;;;;5067647;28;20039;-54
2022/09/06 09:05:25;;;;;;;1.20;1.10;;;17.50;54.20;;;;;;5068869;28;20035;-55
2022/09/06 09:08:05;;;;;;;1.77;1.58;;;17.50;54.10;;;;;;5069503;28;20036;-54
2022/09/06 09:10:57;;;;;;;0.60;0.60;;;17.40;54.00;;;;;;5063344;28;20032;-53
2022/09/06 09:13:30;;;;;;;0.80;0.80;;;17.40;54.20;;;;;;5066041;28;20068;-55
2022/09/06 09:15:56;;;;;;;0.90;0.90;;;17.40;54.20;;;;;;5069025;28;20050;-53
2022/09/06 09:18:27;;;;;;;0.70;0.70;;;17.40;54.90;;;;;;5071284;28;20032;-54
2022/09/06 09:20:52;;;;;;;0.88;0.88;;;17.40;54.20;;;;;;5063889;28;20024;-50
2022/09/06 09:23:18;;;;;;;0.50;0.50;;;17.40;54.20;;;;;;5063898;28;20141;-52
2022/09/06 09:25:46;;;;;;;0.50;0.50;;;17.50;54.30;;;;;;5072021;28;20024;-54
2022/09/06 09:28:18;;;;;;;0.75;0.75;;;17.50;54.20;;;;;;5063823;28;20041;-54
2022/09/06 09:30:52;;;;;;;0.90;0.85;;;17.60;54.30;;;;;;5062950;28;20082;-53
2022/09/06 09:33:21;;;;;;;0.60;0.60;;;17.60;54.40;;;;;;5068258;28;20036;-53
2022/09/06 09:35:47;;;;;;;1.20;1.10;;;17.70;54.30;;;;;;5069003;28;20032;-54
2022/09/06 09:38:21;;;;;;;0.63;0.63;;;17.80;54.20;;;;;;5067997;28;20043;-53
2022/09/06 09:40:56;;;;;;;0.60;0.60;;;17.90;53.80;;;;;;5067265;28;20378;-55
2022/09/06 09:43:29;;;;;;;0.73;0.73;;;17.90;53.80;;;;;;5063654;28;20807;-56
2022/09/06 09:46:13;;;;;;;0.73;0.73;;;17.90;53.50;;;;;;5064363;28;22061;-54
2022/09/06 09:48:43;;;;;;;0.75;0.75;;;17.90;53.40;;;;;;5057518;28;20025;-54
2022/09/06 09:51:24;;;;;;;0.82;0.82;;;18.00;53.40;;;;;;5060926;28;20041;-52
2022/09/06 09:53:52;;;;;;;0.90;0.90;;;18.00;53.30;;;;;;5058472;28;20075;-55
2022/09/06 09:56:25;;;;;;;0.88;0.88;;;18.00;53.20;;;;;;5058006;28;20481;-53
2022/09/06 09:58:54;;;;;;;0.63;0.63;;;17.90;53.20;;;;;;5050339;28;20072;-55
2022/09/06 10:01:27;;;;;;;0.90;0.90;;;17.90;53.30;;;;;;5048920;28;20122;-54
2022/09/06 10:04:01;;;;;;;0.70;0.70;;;17.80;53.30;;;;;;5051550;28;20036;-54
2022/09/06 10:06:27;;;;;;;0.80;0.80;;;17.80;53.20;;;;;;5047906;28;20047;-51
2022/09/06 10:08:55;;;;;;;0.82;0.82;;;17.80;53.30;;;;;;5055408;28;20040;-54
2022/09/06 10:11:57;;;;;;;0.80;0.80;;;17.80;53.10;;;;;;5059293;28;20058;-52
2022/09/06 10:14:40;;;;;;;1.00;0.95;;;17.90;53.00;;;;;;4979848;28;20026;-50
2022/09/06 10:17:06;;;;;;;0.57;0.57;;;17.90;53.20;;;;;;5052181;28;20484;-53
2022/09/06 10:19:36;;;;;;;1.10;1.00;;;18.00;53.40;;;;;;5059473;28;20036;-52
2022/09/06 10:22:34;;;;;;;0.80;0.80;;;18.00;53.10;;;;;;5055544;28;20040;-55
2022/09/06 10:25:12;;;;;;;0.82;0.82;;;18.10;52.90;;;;;;5012058;28;20102;-55
2022/09/06 10:27:50;;;;;;;0.65;0.60;;;18.10;52.80;;;;;;5060870;28;20036;-53
2022/09/06 10:30:15;;;;;;;0.60;0.60;;;18.10;52.80;;;;;;5056595;28;20032;-55
2022/09/06 10:33:04;;;;;;;1.45;1.00;;;18.10;52.70;;;;;;5054767;28;20086;-53
2022/09/06 10:35:39;;;;;;;0.70;0.70;;;18.20;52.50;;;;;;5053259;28;22548;-52
2022/09/06 10:38:31;;;;;;;0.80;0.80;;;18.20;52.40;;;;;;5054505;28;20143;-52
2022/09/06 10:41:28;;;;;;;0.73;0.73;;;18.30;52.20;;;;;;5057414;28;20060;-55
2022/09/06 10:44:31;;;;;;;0.70;0.70;;;18.20;51.90;;;;;;5055112;28;20490;-55
2022/09/06 10:47:15;;;;;;;0.70;0.70;;;18.20;51.80;;;;;;5057027;28;20119;-51
2022/09/06 10:49:49;;;;;;;0.60;0.60;;;18.20;51.60;;;;;;5053955;28;20037;-51
2022/09/06 10:52:22;;;;;;;0.63;0.63;;;18.20;51.70;;;;;;5056651;28;20032;-54
2022/09/06 10:54:48;;;;;;;0.63;0.60;;;18.10;51.80;;;;;;5049395;28;20052;-55
2022/09/06 10:57:20;;;;;;;1.13;0.80;;;18.10;51.70;;;;;;5049726;28;20465;-54
2022/09/06 10:59:51;;;;;;;0.60;0.52;;;18.00;51.70;;;;;;5048890;28;20036;-51
2022/09/06 11:02:31;;;;;;;0.60;0.60;;;18.00;51.50;;;;;;5051102;28;20164;-52
2022/09/06 11:05:04;;;;;;;0.77;0.77;;;18.00;51.50;;;;;;5052890;28;20363;-56
2022/09/06 11:07:34;;;;;;;0.50;0.50;;;18.00;51.60;;;;;;5050899;28;20160;-53
2022/09/06 11:10:26;;;;;;;0.43;0.43;;;18.00;51.60;;;;;;5046346;28;20048;-50
2022/09/06 11:13:02;;;;;;;0.85;0.68;;;18.00;51.30;;;;;;5042262;28;20044;-55
2022/09/06 11:15:41;;;;;;;0.93;0.90;;;18.00;51.50;;;;;;5057434;28;20079;-54
2022/09/06 11:18:13;;;;;;;0.73;0.73;;;18.10;51.20;;;;;;5051188;28;20047;-53
2022/09/06 11:20:44;;;;;;;0.50;0.50;;;18.10;51.10;;;;;;5062517;28;20077;-55
2022/09/06 11:23:50;;;;;;;0.60;0.60;;;18.20;51.10;;;;;;5058382;28;20064;-55
2022/09/06 11:26:29;;;;;;;0.40;0.40;;;18.20;50.60;;;;;;4974271;28;21071;-53
2022/09/06 11:28:58;;;;;;;0.50;0.50;;;18.20;50.60;;;;;;5049197;28;20032;-53
2022/09/06 11:31:49;;;;;;;0.50;0.50;;;18.20;50.60;;;;;;5051007;28;20036;-51
2022/09/06 11:34:34;;;;;;;;;;;18.20;50.60;;;;;;5051467;28;20047;-53
2022/09/06 11:37:03;;;;;;;0.50;0.50;;;18.20;50.20;;;;;;5050276;28;19920;-55
2022/09/06 11:39:41;;;;;;;0.40;0.40;;;18.20;50.80;;;;;;5055732;28;20107;-55
2022/09/06 11:42:40;;;;;;;0.57;0.57;;;18.20;50.40;;;;;;5051264;28;20489;-53
2022/09/06 11:45:05;;;;;;;0.50;0.50;;;18.20;50.40;;;;;;5049715;28;20397;-52
2022/09/06 11:47:53;;;;;;;0.63;0.63;;;18.10;50.30;;;;;;5043711;28;20044;-54
2022/09/06 11:50:19;;;;;;;0.40;0.40;;;18.20;50.30;;;;;;5048929;28;20040;-55
2022/09/06 11:52:58;;;;;;;0.55;0.55;;;18.20;50.60;;;;;;5057227;28;20037;-54
2022/09/06 11:55:50;;;;;;;0.50;0.50;;;18.20;50.60;;;;;;5049145;28;20569;-52
2022/09/06 11:58:15;;;;;;;0.47;0.47;;;18.30;50.20;;;;;;5034836;28;20037;-55
2022/09/06 12:00:41;;;;;;;0.60;0.60;;;18.40;50.30;;;;;;5047094;28;20036;-55
2022/09/06 12:03:09;;;;;;;0.50;0.50;;;18.40;50.30;;;;;;5039575;28;20045;-51
2022/09/06 12:06:15;;;;;;;0.65;0.65;;;18.50;50.40;;;;;;5045932;28;20075;-52
2022/09/06 12:08:42;;;;;;;0.98;0.98;;;18.50;50.10;;;;;;5039737;28;20044;-54
2022/09/06 12:11:35;;;;;;;0.93;0.80;;;18.50;50.00;;;;;;5036119;28;20043;-54
2022/09/06 12:14:04;;;;;;;0.45;0.45;;;18.40;49.80;;;;;;5041548;28;20032;-53
2022/09/06 12:17:12;;;;;;;0.93;0.82;;;18.40;50.00;;;;;;5033579;28;20033;-54
2022/09/06 12:19:58;;;;;;;0.73;0.57;;;18.30;50.00;;;;;;5037819;28;20056;-55
2022/09/06 12:22:27;;;;;;;0.57;0.57;;;18.30;50.30;;;;;;5039752;28;20085;-54
2022/09/06 12:25:09;;;;;;;0.60;0.60;;;18.30;50.60;;;;;;5027872;28;20032;-50
2022/09/06 12:27:38;;;;;;;0.68;0.68;;;18.30;50.40;;;;;;5033349;28;20818;-54
2022/09/06 12:30:06;;;;;;;0.88;0.60;;;18.30;50.30;;;;;;5034081;28;20033;-54
2022/09/06 12:32:40;;;;;;;0.50;0.50;;;18.30;50.20;;;;;;5054990;28;20090;-55
2022/09/06 12:35:13;;;;;;;1.00;0.82;;;18.40;50.00;;;;;;5053014;28;20041;-51
2022/09/06 12:38:12;;;;;;;0.82;0.82;;;18.30;49.90;;;;;;5057745;28;20024;-54
2022/09/06 12:40:44;;;;;;;0.70;0.70;;;18.30;49.70;;;;;;5030494;28;20040;-54
2022/09/06 12:43:12;;;;;;;0.93;0.90;;;18.40;50.10;;;;;;5044599;28;20053;-50
2022/09/06 12:45:46;;;;;;;0.55;0.55;;;18.40;49.90;;;;;;5049344;28;20047;-51
2022/09/06 12:48:25;;;;;;;0.60;0.60;;;18.40;49.80;;;;;;5053719;28;20044;-54
2022/09/06 12:51:01;;;;;;;0.70;0.70;;;18.40;49.70;;;;;;5054219;28;20059;-53
2022/09/06 12:53:30;;;;;;;0.68;0.68;;;18.50;49.70;;;;;;5053298;28;20067;-54
2022/09/06 12:56:07;;;;;;;0.50;0.50;;;18.50;49.80;;;;;;5052652;28;20044;-53
2022/09/06 12:58:34;;;;;;;0.50;0.50;;;18.50;49.90;;;;;;5053291;28;20028;-54
2022/09/06 13:01:11;;;;;;;1.27;0.70;;;18.40;49.70;;;;;;5046904;28;20033;-51
2022/09/06 13:03:44;;;;;;;0.47;0.47;;;18.40;49.70;;;;;;5052451;28;20048;-51
2022/09/06 13:06:17;;;;;;;0.70;0.70;;;18.40;49.70;;;;;;5054656;28;20024;-55
2022/09/06 13:08:52;;;;;;;0.50;0.50;;;18.30;49.70;;;;;;5055425;28;20078;-54